createdAt,value
2023-03-03T00:01:19.152Z,99.90
2023-03-03T00:03:47.344Z,99.90
2023-03-03T00:06:16.844Z,99.90
2023-03-03T00:08:44.988Z,99.90
2023-03-03T00:11:13.436Z,99.90
2023-03-03T00:13:47.492Z,99.90
2023-03-03T00:16:19.109Z,99.90
2023-03-03T00:18:48.818Z,99.90
2023-03-03T00:21:26.563Z,99.90
2023-03-03T00:23:55.233Z,99.90
2023-03-03T00:26:25.061Z,99.90
2023-03-03T00:28:57.158Z,99.90
2023-03-03T00:31:31.569Z,99.90
2023-03-03T00:34:12.987Z,99.90
2023-03-03T00:36:43.162Z,99.90
2023-03-03T00:39:28.235Z,99.90
2023-03-03T00:41:57.699Z,99.90
2023-03-03T00:44:44.368Z,99.90
2023-03-03T00:47:31.658Z,99.90
2023-03-03T00:50:26.597Z,99.90
2023-03-03T00:53:03.170Z,99.90
2023-03-03T00:55:31.945Z,99.90
2023-03-03T00:58:00.143Z,99.90
2023-03-03T01:00:28.288Z,99.90
2023-03-03T01:02:56.562Z,99.90
2023-03-03T01:05:24.916Z,99.90
2023-03-03T01:07:52.917Z,99.90
2023-03-03T01:10:22.412Z,99.90
2023-03-03T01:12:51.038Z,99.90
2023-03-03T01:15:19.194Z,99.90
2023-03-03T01:17:47.339Z,99.90
2023-03-03T01:20:18.927Z,99.90
2023-03-03T01:22:46.961Z,99.90
2023-03-03T01:25:15.237Z,99.90
2023-03-03T01:27:44.769Z,99.90
2023-03-03T01:30:13.532Z,99.90
2023-03-03T01:32:41.658Z,99.90
2023-03-03T01:35:10.396Z,99.90
2023-03-03T01:37:38.456Z,99.90
2023-03-03T01:40:08.303Z,99.90
2023-03-03T01:42:36.386Z,99.90
2023-03-03T01:45:24.845Z,99.90
2023-03-03T01:48:03.859Z,99.90
2023-03-03T01:50:44.345Z,99.90
2023-03-03T01:53:17.073Z,99.90
2023-03-03T01:55:46.589Z,99.90
2023-03-03T01:58:22.734Z,99.90
2023-03-03T02:00:55.009Z,99.90
2023-03-03T02:03:25.589Z,99.90
2023-03-03T02:05:56.420Z,99.90
2023-03-03T02:08:34.564Z,99.90
2023-03-03T02:11:03.681Z,99.90
2023-03-03T02:13:32.986Z,99.90
2023-03-03T02:16:02.721Z,99.90
2023-03-03T02:18:31.219Z,99.90
2023-03-03T02:21:04.921Z,99.90
2023-03-03T02:23:38.764Z,99.90
2023-03-03T02:26:10.721Z,99.90
2023-03-03T02:28:40.037Z,99.90
2023-03-03T02:31:13.189Z,99.90
2023-03-03T02:33:41.785Z,99.90
2023-03-03T02:36:13.709Z,99.90
2023-03-03T02:38:49.534Z,99.90
2023-03-03T02:41:27.443Z,99.90
2023-03-03T02:44:00.349Z,99.90
2023-03-03T02:46:28.567Z,99.90
2023-03-03T02:48:56.615Z,99.90
2023-03-03T02:51:24.889Z,99.90
2023-03-03T02:53:53.312Z,99.90
2023-03-03T02:56:23.048Z,99.90
2023-03-03T02:58:51.320Z,99.90
2023-03-03T03:01:19.437Z,99.90
2023-03-03T03:03:47.884Z,99.90
2023-03-03T03:06:16.140Z,99.90
2023-03-03T03:08:44.261Z,99.90
2023-03-03T03:11:12.386Z,99.90
2023-03-03T03:13:41.885Z,99.90
2023-03-03T03:16:09.959Z,99.90
2023-03-03T03:18:38.078Z,99.90
2023-03-03T03:21:10.658Z,99.90
2023-03-03T03:23:38.949Z,99.90
2023-03-03T03:26:08.328Z,99.90
2023-03-03T03:28:37.186Z,99.90
2023-03-03T03:31:08.244Z,99.90
2023-03-03T03:33:37.377Z,99.90
2023-03-03T03:36:06.295Z,99.90
2023-03-03T03:38:34.850Z,99.90
2023-03-03T03:41:02.960Z,99.90
2023-03-03T03:43:31.043Z,99.90
2023-03-03T03:45:59.197Z,99.90
2023-03-03T03:48:29.040Z,99.90
2023-03-03T03:50:57.218Z,99.90
2023-03-03T03:53:25.333Z,99.90
2023-03-03T03:55:53.447Z,99.90
2023-03-03T03:58:21.644Z,99.90
2023-03-03T04:00:49.757Z,99.90
2023-03-03T04:03:17.974Z,99.90
2023-03-03T04:05:47.537Z,99.90
2023-03-03T04:08:15.789Z,99.90
2023-03-03T04:10:43.791Z,99.90
2023-03-03T04:13:11.841Z,99.90
2023-03-03T04:15:40.068Z,99.90
2023-03-03T04:18:08.123Z,99.90
2023-03-03T04:20:36.193Z,99.90
2023-03-03T04:23:05.676Z,99.90
2023-03-03T04:25:33.788Z,99.90
2023-03-03T04:28:03.572Z,99.90
2023-03-03T04:30:33.339Z,99.90
2023-03-03T04:33:01.442Z,99.90
2023-03-03T04:35:29.584Z,99.90
2023-03-03T04:37:57.758Z,99.90
2023-03-03T04:40:27.878Z,99.90
2023-03-03T04:42:55.928Z,99.90
2023-03-03T04:45:24.112Z,99.90
2023-03-03T04:47:52.129Z,99.90
2023-03-03T04:50:20.880Z,99.90
2023-03-03T04:52:49.004Z,99.90
2023-03-03T04:55:17.192Z,99.90
2023-03-03T04:57:47.088Z,99.90
2023-03-03T05:00:16.151Z,99.90
2023-03-03T05:02:44.541Z,99.90
2023-03-03T05:05:13.692Z,99.90
2023-03-03T05:07:42.152Z,99.90
2023-03-03T05:10:11.386Z,99.90
2023-03-03T05:12:39.612Z,99.90
2023-03-03T05:15:10.099Z,99.90
2023-03-03T05:17:38.138Z,99.90
2023-03-03T05:20:08.580Z,99.90
2023-03-03T05:22:36.978Z,99.90
2023-03-03T05:25:05.747Z,99.90
2023-03-03T05:27:33.941Z,99.90
2023-03-03T05:30:02.174Z,99.90
2023-03-03T05:32:31.784Z,99.90
2023-03-03T05:34:59.983Z,99.90
2023-03-03T05:37:28.095Z,99.90
2023-03-03T05:39:56.351Z,99.90
2023-03-03T05:42:24.511Z,99.90
2023-03-03T05:44:52.669Z,99.90
2023-03-03T05:47:20.717Z,99.90
2023-03-03T05:49:50.364Z,99.90
2023-03-03T05:52:18.421Z,99.90
2023-03-03T05:54:46.628Z,99.90
2023-03-03T05:57:14.703Z,99.90
2023-03-03T05:59:42.853Z,99.90
2023-03-03T06:02:11.130Z,99.90
2023-03-03T06:04:39.919Z,99.90
2023-03-03T06:07:09.391Z,99.90
2023-03-03T06:09:38.046Z,99.90
2023-03-03T06:12:06.517Z,99.90
2023-03-03T06:14:34.861Z,99.90
2023-03-03T06:17:02.989Z,99.90
2023-03-03T06:19:31.094Z,99.90
2023-03-03T06:22:00.741Z,99.90
2023-03-03T06:24:31.758Z,99.90
2023-03-03T06:27:00.702Z,99.90
2023-03-03T06:29:29.475Z,99.90
2023-03-03T06:31:57.681Z,99.90
2023-03-03T06:34:25.953Z,99.90
2023-03-03T06:36:53.992Z,99.90
2023-03-03T06:39:22.130Z,99.90
2023-03-03T06:41:51.749Z,99.90
2023-03-03T06:44:19.924Z,99.90
2023-03-03T06:46:47.987Z,99.90
2023-03-03T06:49:16.041Z,99.90
2023-03-03T06:51:46.233Z,99.90
2023-03-03T06:54:16.146Z,99.90
2023-03-03T06:56:45.542Z,99.90
2023-03-03T06:59:17.242Z,99.90
2023-03-03T07:01:47.329Z,99.90
2023-03-03T07:04:22.439Z,99.90
2023-03-03T07:06:50.574Z,99.90
2023-03-03T07:09:24.017Z,99.90
2023-03-03T07:11:52.465Z,99.90
2023-03-03T07:14:22.122Z,99.90
2023-03-03T07:16:57.783Z,99.90
2023-03-03T07:19:34.054Z,99.90
2023-03-03T07:22:12.606Z,99.90
2023-03-03T07:24:41.070Z,99.90
2023-03-03T07:27:14.843Z,99.90
2023-03-03T07:29:44.569Z,99.90
2023-03-03T07:32:25.891Z,99.90
2023-03-03T07:34:56.850Z,99.90
2023-03-03T07:37:36.012Z,99.90
2023-03-03T07:40:29.058Z,99.90
2023-03-03T07:42:57.233Z,99.90
2023-03-03T07:45:30.286Z,99.90
2023-03-03T07:48:09.630Z,99.90
2023-03-03T07:50:37.970Z,99.90
2023-03-03T07:53:16.084Z,99.90
2023-03-03T07:55:45.868Z,99.90
2023-03-03T07:58:23.169Z,99.90
2023-03-03T08:01:27.505Z,99.90
2023-03-03T08:03:56.702Z,99.90
2023-03-03T08:06:50.628Z,99.90
2023-03-03T08:09:54.317Z,99.90
2023-03-03T08:12:39.887Z,99.90
2023-03-03T08:15:24.175Z,99.90
2023-03-03T08:17:55.354Z,99.90
2023-03-03T08:20:45.559Z,99.90
2023-03-03T08:23:15.045Z,99.90
2023-03-03T08:25:43.726Z,99.90
2023-03-03T08:28:12.625Z,99.90
2023-03-03T08:30:41.066Z,99.90
2023-03-03T08:33:10.888Z,99.90
2023-03-03T08:35:39.093Z,99.90
2023-03-03T08:38:07.860Z,99.90
2023-03-03T08:40:37.203Z,99.90
2023-03-03T08:43:05.858Z,99.90
2023-03-03T08:45:34.711Z,99.90
2023-03-03T08:48:05.624Z,99.90
2023-03-03T08:50:35.750Z,99.90
2023-03-03T08:53:04.002Z,99.90
2023-03-03T08:55:32.603Z,99.90
2023-03-03T08:58:01.181Z,99.90
2023-03-03T09:00:29.823Z,99.90
2023-03-03T09:02:58.212Z,99.90
2023-03-03T09:05:27.128Z,99.90
2023-03-03T09:07:56.998Z,99.90
2023-03-03T09:10:30.922Z,99.90
2023-03-03T09:13:01.929Z,99.90
2023-03-03T09:15:31.930Z,99.90
2023-03-03T09:18:01.346Z,99.90
2023-03-03T09:20:35.704Z,99.90
2023-03-03T09:23:37.160Z,99.90
2023-03-03T09:26:28.482Z,99.90
2023-03-03T09:28:59.568Z,99.90
2023-03-03T09:31:32.643Z,99.90
2023-03-03T09:34:02.103Z,99.90
2023-03-03T09:36:36.775Z,99.90
2023-03-03T09:39:18.554Z,99.90
2023-03-03T09:42:14.182Z,99.90
2023-03-03T09:45:19.307Z,99.90
2023-03-03T09:48:32.365Z,99.90
2023-03-03T09:51:15.202Z,99.90
2023-03-03T09:54:12.662Z,99.90
2023-03-03T09:56:45.722Z,99.90
2023-03-03T09:59:39.145Z,99.90
2023-03-03T10:02:25.934Z,99.90
2023-03-03T10:05:10.715Z,99.90
2023-03-03T10:07:47.372Z,99.90
2023-03-03T10:10:30.956Z,99.90
2023-03-03T10:13:15.494Z,99.90
2023-03-03T10:15:53.287Z,99.90
2023-03-03T10:18:33.566Z,99.90
2023-03-03T10:21:09.916Z,99.90
2023-03-03T10:23:58.885Z,99.90
2023-03-03T10:27:12.915Z,99.90
2023-03-03T10:29:54.292Z,99.90
2023-03-03T10:32:36.430Z,99.90
2023-03-03T10:35:20.682Z,99.90
2023-03-03T10:37:59.640Z,99.90
2023-03-03T10:40:34.715Z,99.90
2023-03-03T10:43:31.900Z,99.90
2023-03-03T10:46:27.118Z,99.90
2023-03-03T10:49:14.859Z,99.90
2023-03-03T10:51:55.065Z,99.90
2023-03-03T10:54:39.673Z,99.90
2023-03-03T10:57:17.074Z,99.90
2023-03-03T11:00:08.206Z,99.90
2023-03-03T11:02:45.228Z,99.90
2023-03-03T11:05:24.318Z,99.90
2023-03-03T11:07:58.957Z,99.90
2023-03-03T11:10:38.696Z,99.90
2023-03-03T11:13:15.594Z,99.90
2023-03-03T11:16:01.940Z,99.90
2023-03-03T11:18:46.998Z,99.90
2023-03-03T11:21:21.673Z,99.90
2023-03-03T11:24:12.691Z,99.90
2023-03-03T11:26:52.245Z,99.90
2023-03-03T11:29:33.036Z,99.90
2023-03-03T11:32:18.264Z,99.90
2023-03-03T11:35:00.243Z,99.60
2023-03-03T11:37:40.197Z,99.60
2023-03-03T11:40:18.148Z,99.90
2023-03-03T11:42:58.878Z,99.90
2023-03-03T11:45:32.206Z,99.90
2023-03-03T11:48:09.033Z,99.50
2023-03-03T11:50:41.315Z,99.50
2023-03-03T11:53:35.097Z,99.60
2023-03-03T11:56:15.573Z,99.90
2023-03-03T11:58:47.915Z,99.60
2023-03-03T12:01:23.637Z,99.50
2023-03-03T12:03:59.009Z,99.90
2023-03-03T12:06:34.796Z,99.90
2023-03-03T12:09:17.526Z,99.00
2023-03-03T12:11:51.653Z,98.80
2023-03-03T12:14:38.630Z,98.50
2023-03-03T12:17:17.603Z,98.10
2023-03-03T12:19:56.078Z,98.50
2023-03-03T12:22:35.230Z,98.30
2023-03-03T12:25:20.518Z,98.90
2023-03-03T12:27:55.982Z,98.90
2023-03-03T12:30:58.007Z,98.00
2023-03-03T12:33:38.164Z,98.20
2023-03-03T12:36:18.069Z,98.50
2023-03-03T12:38:55.238Z,98.70
2023-03-03T12:41:30.526Z,98.40
2023-03-03T12:44:06.881Z,98.50
2023-03-03T12:46:46.947Z,98.80
2023-03-03T12:49:15.192Z,98.00
2023-03-03T12:52:03.251Z,97.90
2023-03-03T12:54:43.804Z,97.20
2023-03-03T12:57:32.361Z,97.20
2023-03-03T13:00:28.395Z,96.90
2023-03-03T13:03:09.244Z,97.20
2023-03-03T13:05:50.922Z,97.10
2023-03-03T13:08:33.544Z,96.90
2023-03-03T13:11:12.922Z,96.20
2023-03-03T13:13:50.715Z,97.10
2023-03-03T13:16:40.276Z,95.70
2023-03-03T13:19:13.651Z,96.20
2023-03-03T13:21:47.865Z,96.40
2023-03-03T13:24:22.998Z,96.50
2023-03-03T13:26:55.660Z,97.00
2023-03-03T13:29:28.699Z,97.30
2023-03-03T13:31:58.267Z,97.90
2023-03-03T13:34:41.725Z,97.40
2023-03-03T13:37:17.022Z,97.20
2023-03-03T13:39:57.317Z,96.80
2023-03-03T13:42:31.723Z,96.90
2023-03-03T13:45:01.606Z,96.70
2023-03-03T13:47:40.434Z,97.10
2023-03-03T13:50:20.364Z,96.10
2023-03-03T13:53:01.850Z,95.60
2023-03-03T13:55:36.732Z,95.40
2023-03-03T13:58:16.529Z,95.00
2023-03-03T14:00:59.057Z,94.60
2023-03-03T14:03:47.637Z,93.90
2023-03-03T14:06:17.991Z,95.30
2023-03-03T14:08:56.041Z,95.40
2023-03-03T14:11:31.660Z,95.30
2023-03-03T14:14:09.482Z,94.80
2023-03-03T14:16:51.824Z,94.20
2023-03-03T14:19:26.052Z,94.60
2023-03-03T14:22:06.284Z,94.50
2023-03-03T14:24:54.612Z,94.50
2023-03-03T14:27:27.121Z,96.00
2023-03-03T14:29:55.359Z,95.80
2023-03-03T14:32:39.401Z,95.80
2023-03-03T14:35:20.624Z,96.40
2023-03-03T14:37:51.846Z,97.00
2023-03-03T14:40:23.384Z,96.60
2023-03-03T14:42:56.406Z,96.80
2023-03-03T14:45:33.832Z,96.70
2023-03-03T14:48:12.550Z,96.00
2023-03-03T14:50:51.711Z,96.10
2023-03-03T14:53:33.270Z,96.40
2023-03-03T14:56:23.802Z,97.00
2023-03-03T14:58:55.378Z,97.20
2023-03-03T15:01:31.188Z,97.30
2023-03-03T15:04:04.582Z,97.40
2023-03-03T15:06:37.828Z,98.00
2023-03-03T15:09:36.649Z,98.70
2023-03-03T15:12:21.285Z,99.10
2023-03-03T15:14:52.555Z,99.20
2023-03-03T15:17:27.032Z,99.50
2023-03-03T15:20:32.350Z,99.50
2023-03-03T15:23:13.271Z,99.60
2023-03-03T15:25:53.769Z,99.80
2023-03-03T15:28:33.995Z,99.90
2023-03-03T15:31:13.072Z,99.90
2023-03-03T15:33:48.694Z,99.90
2023-03-03T15:36:25.245Z,99.90
2023-03-03T15:39:02.678Z,99.90
2023-03-03T15:41:40.098Z,99.90
2023-03-03T15:44:17.152Z,99.90
2023-03-03T15:47:15.040Z,99.90
2023-03-03T15:50:05.314Z,99.90
2023-03-03T15:52:53.225Z,99.90
2023-03-03T15:55:39.405Z,99.90
2023-03-03T15:58:38.889Z,99.90
2023-03-03T16:01:16.590Z,99.90
2023-03-03T16:03:50.844Z,99.90
2023-03-03T16:06:29.115Z,99.90
2023-03-03T16:09:03.944Z,99.90
2023-03-03T16:11:39.561Z,99.90
2023-03-03T16:14:28.513Z,99.90
2023-03-03T16:17:06.435Z,99.90
2023-03-03T16:19:44.672Z,99.90
2023-03-03T16:22:34.848Z,99.90
2023-03-03T16:25:21.914Z,99.90
2023-03-03T16:27:55.770Z,99.90
2023-03-03T16:30:35.859Z,99.90
2023-03-03T16:33:19.303Z,99.90
2023-03-03T16:35:57.195Z,99.90
2023-03-03T16:38:32.280Z,99.90
2023-03-03T16:41:02.626Z,99.90
2023-03-03T16:43:42.187Z,99.90
2023-03-03T16:46:24.096Z,99.90
2023-03-03T16:48:58.147Z,99.90
2023-03-03T16:51:40.463Z,99.90
2023-03-03T16:54:13.098Z,99.90
2023-03-03T16:56:45.520Z,99.90
2023-03-03T16:59:56.255Z,99.90
2023-03-03T17:02:53.876Z,99.90
2023-03-03T17:05:30.879Z,99.90
2023-03-03T17:08:19.470Z,99.90
2023-03-03T17:10:52.461Z,99.90
2023-03-03T17:13:50.065Z,99.90
2023-03-03T17:16:26.771Z,99.90
2023-03-03T17:19:08.153Z,99.90
2023-03-03T17:21:43.003Z,99.90
2023-03-03T17:24:24.121Z,99.90
2023-03-03T17:27:01.651Z,99.90
2023-03-03T17:29:48.834Z,99.90
2023-03-03T17:32:34.335Z,99.90
2023-03-03T17:35:23.855Z,99.90
2023-03-03T17:37:59.317Z,99.90
2023-03-03T17:40:41.752Z,99.90
2023-03-03T17:43:14.191Z,99.90
2023-03-03T17:45:45.722Z,99.90
2023-03-03T17:48:40.907Z,99.90
2023-03-03T17:51:20.823Z,99.90
2023-03-03T17:54:22.316Z,99.90
2023-03-03T17:57:00.353Z,99.90
2023-03-03T17:59:55.570Z,99.90
2023-03-03T18:02:48.439Z,99.90
2023-03-03T18:05:37.535Z,99.90
2023-03-03T18:08:37.155Z,99.90
2023-03-03T18:11:24.102Z,99.90
2023-03-03T18:14:31.696Z,99.90
2023-03-03T18:17:23.778Z,99.90
2023-03-03T18:20:02.870Z,99.90
2023-03-03T18:22:34.171Z,99.90
2023-03-03T18:25:05.568Z,99.90
2023-03-03T18:27:36.095Z,99.90
2023-03-03T18:30:49.155Z,99.90
2023-03-03T18:33:36.835Z,99.90
2023-03-03T18:36:17.547Z,99.90
2023-03-03T18:38:48.558Z,99.90
2023-03-03T18:41:24.130Z,99.90
2023-03-03T18:43:56.249Z,99.90
2023-03-03T18:46:54.228Z,99.90
2023-03-03T18:50:05.230Z,99.90
2023-03-03T18:52:37.764Z,99.90
2023-03-03T18:55:28.882Z,99.90
2023-03-03T18:58:38.939Z,99.90
2023-03-03T19:01:38.630Z,99.90
2023-03-03T19:04:26.156Z,99.90
2023-03-03T19:07:27.468Z,99.90
2023-03-03T19:10:01.905Z,99.90
2023-03-03T19:12:55.762Z,99.90
2023-03-03T19:15:58.548Z,99.90
2023-03-03T19:18:29.949Z,99.90
2023-03-03T19:21:02.032Z,99.90
2023-03-03T19:23:54.796Z,99.90
2023-03-03T19:27:15.685Z,99.90
2023-03-03T19:30:21.833Z,99.90
2023-03-03T19:33:26.579Z,99.90
2023-03-03T19:36:06.434Z,99.90
2023-03-03T19:38:41.549Z,99.90
2023-03-03T19:41:31.784Z,99.90
2023-03-03T19:44:11.369Z,99.90
2023-03-03T19:46:54.913Z,99.90
2023-03-03T19:49:31.881Z,99.90
2023-03-03T19:52:05.133Z,99.90
2023-03-03T19:54:49.502Z,99.90
2023-03-03T19:57:27.872Z,99.90
2023-03-03T20:00:02.650Z,99.90
2023-03-03T20:02:46.288Z,99.90
2023-03-03T20:05:26.980Z,99.90
2023-03-03T20:08:02.932Z,99.90
2023-03-03T20:10:45.013Z,99.90
2023-03-03T20:13:38.957Z,99.90
2023-03-03T20:16:21.816Z,99.90
2023-03-03T20:19:02.913Z,99.90
2023-03-03T20:21:36.175Z,99.90
2023-03-03T20:24:28.478Z,99.90
2023-03-03T20:27:00.266Z,99.90
2023-03-03T20:29:46.069Z,99.90
2023-03-03T20:32:22.750Z,99.90
2023-03-03T20:35:05.096Z,99.90
2023-03-03T20:37:45.594Z,99.90
2023-03-03T20:40:22.984Z,99.90
2023-03-03T20:43:05.012Z,99.90
2023-03-03T20:45:50.675Z,99.90
2023-03-03T20:48:42.252Z,99.90
2023-03-03T20:51:16.614Z,99.90
2023-03-03T20:53:52.722Z,99.90
2023-03-03T20:56:26.162Z,99.90
2023-03-03T20:59:08.612Z,99.90
2023-03-03T21:01:45.087Z,99.90
2023-03-03T21:04:23.684Z,99.90
2023-03-03T21:06:52.944Z,99.90
2023-03-03T21:09:28.024Z,99.90
2023-03-03T21:11:57.221Z,99.90
2023-03-03T21:14:29.307Z,99.90
2023-03-03T21:17:02.834Z,99.90
2023-03-03T21:19:32.648Z,99.90
2023-03-03T21:22:02.892Z,99.90
2023-03-03T21:24:52.164Z,99.90
2023-03-03T21:27:29.362Z,99.90
2023-03-03T21:30:06.805Z,99.90
2023-03-03T21:32:44.227Z,99.90
2023-03-03T21:35:14.469Z,99.90
2023-03-03T21:37:48.752Z,99.90
2023-03-03T21:40:20.972Z,99.90
2023-03-03T21:42:49.384Z,99.90
2023-03-03T21:45:20.416Z,99.90
2023-03-03T21:47:49.919Z,99.90
2023-03-03T21:50:20.283Z,99.90
2023-03-03T21:52:48.566Z,99.90
2023-03-03T21:55:17.114Z,99.90
2023-03-03T21:57:45.198Z,99.90
2023-03-03T22:00:14.197Z,99.90
2023-03-03T22:02:42.302Z,99.90
2023-03-03T22:05:11.849Z,99.90
2023-03-03T22:07:39.972Z,99.90
2023-03-03T22:10:09.980Z,99.90
2023-03-03T22:12:38.226Z,99.90
2023-03-03T22:15:07.295Z,99.90
2023-03-03T22:17:35.348Z,99.90
2023-03-03T22:20:03.558Z,99.90
2023-03-03T22:22:33.063Z,99.90
2023-03-03T22:25:01.132Z,99.90
2023-03-03T22:27:29.212Z,99.90
2023-03-03T22:29:57.230Z,99.90
2023-03-03T22:32:25.518Z,99.90
2023-03-03T22:34:53.838Z,99.90
2023-03-03T22:37:23.893Z,99.90
2023-03-03T22:39:53.459Z,99.90
2023-03-03T22:42:23.420Z,99.90
2023-03-03T22:44:51.532Z,99.90
2023-03-03T22:47:19.632Z,99.90
2023-03-03T22:49:47.706Z,99.90
2023-03-03T22:52:15.725Z,99.90
2023-03-03T22:54:43.741Z,99.90
2023-03-03T22:57:13.117Z,99.90
2023-03-03T23:02:15.342Z,99.90
2023-03-03T23:04:43.447Z,99.90
2023-03-03T23:07:11.510Z,99.90
2023-03-03T23:09:39.779Z,99.90
2023-03-03T23:12:08.534Z,99.90
2023-03-03T23:14:37.994Z,99.90
2023-03-03T23:17:06.038Z,99.90
2023-03-03T23:19:34.155Z,99.90
2023-03-03T23:22:02.272Z,99.90
2023-03-03T23:24:30.352Z,99.90
2023-03-03T23:26:58.409Z,99.90
2023-03-03T23:29:27.645Z,99.90
2023-03-03T23:31:57.366Z,99.90
2023-03-03T23:34:25.656Z,99.90
2023-03-03T23:36:53.671Z,99.90
2023-03-03T23:39:22.055Z,99.90
2023-03-03T23:41:50.099Z,99.90
2023-03-03T23:44:18.222Z,99.90
2023-03-03T23:46:46.318Z,99.90
2023-03-03T23:49:15.752Z,99.90
2023-03-03T23:51:43.947Z,99.90
2023-03-03T23:54:12.009Z,99.90
2023-03-03T23:56:40.022Z,99.90
2023-03-03T23:59:08.119Z,99.90
